createdAt,value
2019-01-09T00:00:43.596Z,84.80
2019-01-09T00:03:12.106Z,84.70
2019-01-09T00:05:40.513Z,84.60
2019-01-09T00:08:08.997Z,84.70
2019-01-09T00:10:37.443Z,84.70
2019-01-09T00:13:05.869Z,84.60
2019-01-09T00:15:34.358Z,84.60
2019-01-09T00:18:02.932Z,84.50
2019-01-09T00:20:31.343Z,84.70
2019-01-09T00:22:59.775Z,84.30
2019-01-09T00:25:28.266Z,84.30
2019-01-09T00:27:56.701Z,84.30
2019-01-09T00:30:25.106Z,84.50
2019-01-09T00:32:53.546Z,84.50
2019-01-09T00:35:22.041Z,83.70
2019-01-09T00:37:50.461Z,84.30
2019-01-09T00:40:18.889Z,84.50
2019-01-09T00:42:47.402Z,84.50
2019-01-09T00:45:15.832Z,84.40
2019-01-09T00:47:44.255Z,84.60
2019-01-09T00:50:12.960Z,84.80
2019-01-09T00:52:41.509Z,84.90
2019-01-09T00:55:10.797Z,85.00
2019-01-09T00:57:39.289Z,85.10
2019-01-09T01:00:13.549Z,85.20
2019-01-09T01:02:45.057Z,85.20
2019-01-09T01:05:35.672Z,85.20
2019-01-09T01:08:30.917Z,85.20
2019-01-09T01:11:21.596Z,85.30
2019-01-09T01:13:58.717Z,85.50
2019-01-09T01:17:04.864Z,85.40
2019-01-09T01:19:48.339Z,85.40
2019-01-09T01:22:28.625Z,85.40
2019-01-09T01:25:16.309Z,85.40
2019-01-09T01:27:47.805Z,85.60
2019-01-09T01:30:25.296Z,85.70
2019-01-09T01:33:11.666Z,85.80
2019-01-09T01:36:11.408Z,85.80
2019-01-09T01:39:15.795Z,85.80
2019-01-09T01:41:53.063Z,85.90
2019-01-09T01:44:29.786Z,85.80
2019-01-09T01:47:16.401Z,85.80
2019-01-09T01:50:14.913Z,85.70
2019-01-09T01:52:52.279Z,85.70
2019-01-09T01:55:38.432Z,85.90
2019-01-09T01:58:24.657Z,85.90
2019-01-09T02:01:21.397Z,85.80
2019-01-09T02:04:25.869Z,86.00
2019-01-09T02:07:27.188Z,86.00
2019-01-09T02:10:13.585Z,86.10
2019-01-09T02:13:12.054Z,85.90
2019-01-09T02:16:04.427Z,85.90
2019-01-09T02:18:36.160Z,86.00
2019-01-09T02:21:16.292Z,86.10
2019-01-09T02:24:05.696Z,86.10
2019-01-09T02:26:40.241Z,86.20
2019-01-09T02:29:20.480Z,86.10
2019-01-09T02:32:09.709Z,86.40
2019-01-09T02:34:38.152Z,86.40
2019-01-09T02:37:06.590Z,86.50
2019-01-09T02:39:35.022Z,86.40
2019-01-09T02:42:03.464Z,86.50
2019-01-09T02:44:32.616Z,86.40
2019-01-09T02:47:01.188Z,86.30
2019-01-09T02:49:29.612Z,86.50
2019-01-09T02:51:58.032Z,86.40
2019-01-09T02:54:26.481Z,86.40
2019-01-09T02:56:54.911Z,86.40
2019-01-09T02:59:23.349Z,86.30
2019-01-09T03:01:52.927Z,86.40
2019-01-09T03:04:21.362Z,86.40
2019-01-09T03:06:49.779Z,86.40
2019-01-09T03:09:18.219Z,86.30
2019-01-09T03:11:46.632Z,86.30
2019-01-09T03:14:15.068Z,86.40
2019-01-09T03:16:43.507Z,86.40
2019-01-09T03:19:11.924Z,86.50
2019-01-09T03:21:40.355Z,86.60
2019-01-09T03:24:08.777Z,86.70
2019-01-09T03:26:37.227Z,86.80
2019-01-09T03:29:05.641Z,86.70
2019-01-09T03:31:34.071Z,86.90
2019-01-09T03:34:02.488Z,86.80
2019-01-09T03:36:32.867Z,86.90
2019-01-09T03:39:01.061Z,87.00
2019-01-09T03:41:29.510Z,87.00
2019-01-09T03:43:57.997Z,86.90
2019-01-09T03:46:26.422Z,86.90
2019-01-09T03:48:54.845Z,86.90
2019-01-09T03:51:23.286Z,87.00
2019-01-09T03:53:51.733Z,86.90
2019-01-09T03:56:20.170Z,86.90
2019-01-09T03:58:48.601Z,86.90
2019-01-09T04:01:17.088Z,86.80
2019-01-09T04:03:45.505Z,86.80
2019-01-09T04:06:13.935Z,87.20
2019-01-09T04:08:42.358Z,87.10
2019-01-09T04:11:10.865Z,87.20
2019-01-09T04:13:39.397Z,87.10
2019-01-09T04:16:07.817Z,87.20
2019-01-09T04:18:36.219Z,87.00
2019-01-09T04:21:04.670Z,87.20
2019-01-09T04:23:33.125Z,87.20
2019-01-09T04:26:01.568Z,87.20
2019-01-09T04:28:30.003Z,87.30
2019-01-09T04:30:58.471Z,87.20
2019-01-09T04:33:26.894Z,87.20
2019-01-09T04:35:55.320Z,87.10
2019-01-09T04:38:23.733Z,87.30
2019-01-09T04:40:52.162Z,87.30
2019-01-09T04:43:20.616Z,87.40
2019-01-09T04:45:49.034Z,87.30
2019-01-09T04:48:17.471Z,87.20
2019-01-09T04:50:45.906Z,87.30
2019-01-09T04:53:14.328Z,87.40
2019-01-09T04:55:42.770Z,87.40
2019-01-09T04:58:11.218Z,87.40
2019-01-09T05:00:39.636Z,87.40
2019-01-09T05:03:08.088Z,87.30
2019-01-09T05:05:36.519Z,87.30
2019-01-09T05:08:04.936Z,87.10
2019-01-09T05:10:33.382Z,87.20
2019-01-09T05:13:01.826Z,87.20
2019-01-09T05:15:30.536Z,87.10
2019-01-09T05:17:58.997Z,87.30
2019-01-09T05:20:27.473Z,87.30
2019-01-09T05:22:55.877Z,87.30
2019-01-09T05:25:24.290Z,87.40
2019-01-09T05:27:52.741Z,87.20
2019-01-09T05:30:21.215Z,87.40
2019-01-09T05:32:49.724Z,87.40
2019-01-09T05:35:18.179Z,87.60
2019-01-09T05:37:46.627Z,87.60
2019-01-09T05:40:15.069Z,87.60
2019-01-09T05:42:43.526Z,87.70
2019-01-09T05:45:11.949Z,87.60
2019-01-09T05:47:40.401Z,87.50
2019-01-09T05:50:08.829Z,87.40
2019-01-09T05:52:37.276Z,87.30
2019-01-09T05:55:05.765Z,87.30
2019-01-09T05:57:34.194Z,87.40
2019-01-09T06:00:02.714Z,87.30
2019-01-09T06:02:31.156Z,87.30
2019-01-09T06:04:59.576Z,86.80
2019-01-09T06:07:28.059Z,87.20
2019-01-09T06:09:56.486Z,87.20
2019-01-09T06:12:24.911Z,87.10
2019-01-09T06:14:53.356Z,87.30
2019-01-09T06:17:21.789Z,87.30
2019-01-09T06:19:50.217Z,87.40
2019-01-09T06:22:18.631Z,87.50
2019-01-09T06:24:47.076Z,87.50
2019-01-09T06:27:15.490Z,87.60
2019-01-09T06:29:43.905Z,87.70
2019-01-09T06:32:12.366Z,87.60
2019-01-09T06:34:40.786Z,87.60
2019-01-09T06:37:09.230Z,87.60
2019-01-09T06:39:37.643Z,87.50
2019-01-09T06:42:06.078Z,87.50
2019-01-09T06:44:34.489Z,87.50
2019-01-09T06:47:02.929Z,87.30
2019-01-09T06:49:31.343Z,87.40
2019-01-09T06:51:59.753Z,87.20
2019-01-09T06:54:28.214Z,87.30
2019-01-09T06:56:56.693Z,87.30
2019-01-09T06:59:25.188Z,87.40
2019-01-09T07:01:53.616Z,87.30
2019-01-09T07:04:22.031Z,87.50
2019-01-09T07:06:50.460Z,88.30
2019-01-09T07:09:18.899Z,87.90
2019-01-09T07:11:47.329Z,87.80
2019-01-09T07:14:15.837Z,87.70
2019-01-09T07:16:44.243Z,87.50
2019-01-09T07:19:12.692Z,87.50
2019-01-09T07:21:45.715Z,87.50
2019-01-09T07:24:11.268Z,87.60
2019-01-09T07:26:39.676Z,87.60
2019-01-09T07:29:08.126Z,87.60
2019-01-09T07:31:36.562Z,87.60
2019-01-09T07:34:05.145Z,87.60
2019-01-09T07:36:33.575Z,87.50
2019-01-09T07:39:01.998Z,87.60
2019-01-09T07:41:30.452Z,87.70
2019-01-09T07:43:58.866Z,87.60
2019-01-09T07:46:27.306Z,87.60
2019-01-09T07:48:55.720Z,87.40
2019-01-09T07:51:24.159Z,87.40
2019-01-09T07:53:52.584Z,87.30
2019-01-09T07:56:21.013Z,87.30
2019-01-09T07:58:49.441Z,87.40
2019-01-09T08:01:17.867Z,87.20
2019-01-09T08:03:46.307Z,87.90
2019-01-09T08:06:14.717Z,87.20
2019-01-09T08:08:43.216Z,87.20
2019-01-09T08:11:11.617Z,87.00
2019-01-09T08:13:40.045Z,87.20
2019-01-09T08:16:08.479Z,87.00
2019-01-09T08:18:36.928Z,86.90
2019-01-09T08:21:05.842Z,86.50
2019-01-09T08:23:34.362Z,86.70
2019-01-09T08:26:02.836Z,86.90
2019-01-09T08:28:31.276Z,86.60
2019-01-09T08:30:59.710Z,86.50
2019-01-09T08:33:28.167Z,86.60
2019-01-09T08:35:56.592Z,86.50
2019-01-09T08:38:25.008Z,85.90
2019-01-09T08:40:54.038Z,86.70
2019-01-09T08:43:23.554Z,86.60
2019-01-09T08:45:52.021Z,85.90
2019-01-09T08:48:20.445Z,85.60
2019-01-09T08:50:48.899Z,86.00
2019-01-09T08:53:17.319Z,85.90
2019-01-09T08:55:45.767Z,86.60
2019-01-09T08:58:14.198Z,86.50
2019-01-09T09:00:42.598Z,86.20
2019-01-09T09:03:11.036Z,86.90
2019-01-09T09:05:39.481Z,87.30
2019-01-09T09:08:12.199Z,87.40
2019-01-09T09:10:38.329Z,87.20
2019-01-09T09:13:06.801Z,87.20
2019-01-09T09:15:35.217Z,87.30
2019-01-09T09:18:03.734Z,87.30
2019-01-09T09:20:32.166Z,87.30
2019-01-09T09:23:00.609Z,87.30
2019-01-09T09:25:29.046Z,88.00
2019-01-09T09:27:57.477Z,87.30
2019-01-09T09:30:25.893Z,87.30
2019-01-09T09:32:54.344Z,87.00
2019-01-09T09:35:22.774Z,86.90
2019-01-09T09:37:51.216Z,86.60
2019-01-09T09:40:20.376Z,86.50
2019-01-09T09:42:48.797Z,86.10
2019-01-09T09:45:17.222Z,86.80
2019-01-09T09:47:45.673Z,85.90
2019-01-09T09:50:15.931Z,85.10
2019-01-09T09:52:44.365Z,85.60
2019-01-09T09:55:13.425Z,86.00
2019-01-09T09:57:41.852Z,85.10
2019-01-09T10:00:13.353Z,85.50
2019-01-09T10:02:41.782Z,85.60
2019-01-09T10:05:10.301Z,85.40
2019-01-09T10:07:38.725Z,85.60
2019-01-09T10:10:10.459Z,85.30
2019-01-09T10:12:38.883Z,85.30
2019-01-09T10:15:15.311Z,85.50
2019-01-09T10:17:43.754Z,85.20
2019-01-09T10:20:14.808Z,84.40
2019-01-09T10:22:43.885Z,84.90
2019-01-09T10:25:12.388Z,84.30
2019-01-09T10:27:40.798Z,83.90
2019-01-09T10:30:12.309Z,83.50
2019-01-09T10:32:40.726Z,83.60
2019-01-09T10:35:09.292Z,83.80
2019-01-09T10:37:37.735Z,84.40
2019-01-09T10:40:12.202Z,84.50
2019-01-09T10:42:45.193Z,84.70
2019-01-09T10:45:16.790Z,84.00
2019-01-09T10:47:45.205Z,84.50
2019-01-09T10:50:15.912Z,84.30
2019-01-09T10:52:44.387Z,84.90
2019-01-09T10:55:15.754Z,84.90
2019-01-09T10:57:44.269Z,84.10
2019-01-09T11:00:26.085Z,84.40
2019-01-09T11:02:54.773Z,84.70
2019-01-09T11:05:23.272Z,84.60
2019-01-09T11:07:51.826Z,85.10
2019-01-09T11:10:20.684Z,85.10
2019-01-09T11:12:49.835Z,85.00
2019-01-09T11:15:18.278Z,85.10
2019-01-09T11:17:46.715Z,84.90
2019-01-09T11:20:17.315Z,85.10
2019-01-09T11:22:45.821Z,85.40
2019-01-09T11:25:22.312Z,85.30
2019-01-09T11:27:50.875Z,85.40
2019-01-09T11:30:20.743Z,85.30
2019-01-09T11:32:49.165Z,85.40
2019-01-09T11:35:19.943Z,85.70
2019-01-09T11:37:48.407Z,85.80
2019-01-09T11:40:18.786Z,85.70
2019-01-09T11:42:47.300Z,85.80
2019-01-09T11:45:18.345Z,85.50
2019-01-09T11:47:47.664Z,85.60
2019-01-09T11:50:17.257Z,85.20
2019-01-09T11:52:45.792Z,84.70
2019-01-09T11:55:15.381Z,84.60
2019-01-09T11:57:43.814Z,85.00
2019-01-09T12:00:15.410Z,84.50
2019-01-09T12:02:43.855Z,84.40
2019-01-09T12:05:12.408Z,84.00
2019-01-09T12:07:40.837Z,84.60
2019-01-09T12:10:29.476Z,84.50
2019-01-09T12:12:51.462Z,84.60
2019-01-09T12:15:20.069Z,84.30
2019-01-09T12:17:48.653Z,83.60
2019-01-09T12:20:18.649Z,84.00
2019-01-09T12:22:48.958Z,84.10
2019-01-09T12:25:17.587Z,83.60
2019-01-09T12:27:46.039Z,84.10
2019-01-09T12:30:17.593Z,84.10
2019-01-09T12:32:46.036Z,83.40
2019-01-09T12:35:14.612Z,84.50
2019-01-09T12:37:43.050Z,84.70
2019-01-09T12:40:11.920Z,84.60
2019-01-09T12:42:40.333Z,84.40
2019-01-09T12:45:14.680Z,84.40
2019-01-09T12:47:43.114Z,84.50
2019-01-09T12:50:17.937Z,84.30
2019-01-09T12:52:46.376Z,84.50
2019-01-09T12:55:14.873Z,84.50
2019-01-09T12:57:43.305Z,84.40
2019-01-09T13:00:14.876Z,84.60
2019-01-09T13:02:43.306Z,85.00
2019-01-09T13:05:11.860Z,84.60
2019-01-09T13:07:40.286Z,84.80
2019-01-09T13:10:10.686Z,84.70
2019-01-09T13:12:39.086Z,84.50
2019-01-09T13:15:09.458Z,84.40
2019-01-09T13:17:37.878Z,84.50
2019-01-09T13:20:15.674Z,84.60
2019-01-09T13:22:44.180Z,84.30
2019-01-09T13:25:15.094Z,84.20
2019-01-09T13:27:44.207Z,83.90
2019-01-09T13:30:15.602Z,84.10
2019-01-09T13:32:44.199Z,83.80
2019-01-09T13:35:12.714Z,83.70
2019-01-09T13:37:41.172Z,83.80
2019-01-09T13:40:19.745Z,83.90
2019-01-09T13:42:48.360Z,84.00
2019-01-09T13:45:19.207Z,83.40
2019-01-09T13:47:48.043Z,83.90
2019-01-09T13:50:18.045Z,83.50
2019-01-09T13:52:47.130Z,83.80
2019-01-09T13:55:16.718Z,84.00
2019-01-09T13:57:45.202Z,83.70
2019-01-09T14:00:16.785Z,84.50
2019-01-09T14:02:45.653Z,84.40
2019-01-09T14:05:14.549Z,84.10
2019-01-09T14:07:43.092Z,83.90
2019-01-09T14:10:14.256Z,84.50
2019-01-09T14:12:42.766Z,84.60
2019-01-09T14:15:14.211Z,84.40
2019-01-09T14:17:42.645Z,84.40
2019-01-09T14:20:12.100Z,84.50
2019-01-09T14:22:40.773Z,84.70
2019-01-09T14:25:13.703Z,84.70
2019-01-09T14:27:42.195Z,84.70
2019-01-09T14:30:24.670Z,84.80
2019-01-09T14:32:53.115Z,85.00
2019-01-09T14:35:21.644Z,84.90
2019-01-09T14:37:50.156Z,84.90
2019-01-09T14:40:19.813Z,84.80
2019-01-09T14:42:48.301Z,84.70
2019-01-09T14:45:17.413Z,84.40
2019-01-09T14:47:45.944Z,84.10
2019-01-09T14:50:19.554Z,84.00
2019-01-09T14:52:48.155Z,84.60
2019-01-09T14:55:16.948Z,84.80
2019-01-09T14:57:46.325Z,84.20
2019-01-09T15:00:19.875Z,84.20
2019-01-09T15:02:48.317Z,85.20
2019-01-09T15:05:16.761Z,85.30
2019-01-09T15:07:45.321Z,85.40
2019-01-09T15:10:23.017Z,85.60
2019-01-09T15:12:51.588Z,85.70
2019-01-09T15:15:20.028Z,85.80
2019-01-09T15:17:49.119Z,85.80
2019-01-09T15:20:19.355Z,85.90
2019-01-09T15:22:48.009Z,86.10
2019-01-09T15:25:17.424Z,86.00
2019-01-09T15:27:45.883Z,86.00
2019-01-09T15:30:17.410Z,86.30
2019-01-09T15:32:45.925Z,86.20
2019-01-09T15:35:14.729Z,85.70
2019-01-09T15:37:43.162Z,86.10
2019-01-09T15:40:14.645Z,86.30
2019-01-09T15:42:44.113Z,86.10
2019-01-09T15:45:13.771Z,86.30
2019-01-09T15:47:42.217Z,86.40
2019-01-09T15:50:19.296Z,86.50
2019-01-09T15:52:47.785Z,86.50
2019-01-09T15:55:17.317Z,86.10
2019-01-09T15:57:47.368Z,86.20
2019-01-09T16:00:23.831Z,85.90
2019-01-09T16:02:52.330Z,86.10
2019-01-09T16:05:20.875Z,85.90
2019-01-09T16:07:49.305Z,86.40
2019-01-09T16:10:22.614Z,86.10
2019-01-09T16:12:51.085Z,86.30
2019-01-09T16:15:19.664Z,86.70
2019-01-09T16:17:48.216Z,86.80
2019-01-09T16:20:18.865Z,86.60
2019-01-09T16:22:47.295Z,86.20
2019-01-09T16:25:16.075Z,86.50
2019-01-09T16:27:44.485Z,86.50
2019-01-09T16:30:33.882Z,86.50
2019-01-09T16:32:58.506Z,86.20
2019-01-09T16:35:28.685Z,86.40
2019-01-09T16:37:57.097Z,86.50
2019-01-09T16:40:25.509Z,86.40
2019-01-09T16:42:53.933Z,86.30
2019-01-09T16:45:22.352Z,86.80
2019-01-09T16:47:50.752Z,86.80
2019-01-09T16:50:21.024Z,86.70
2019-01-09T16:52:49.424Z,86.60
2019-01-09T16:55:17.908Z,86.60
2019-01-09T16:57:46.465Z,86.10
2019-01-09T17:00:35.486Z,86.80
2019-01-09T17:03:04.118Z,86.80
2019-01-09T17:05:32.541Z,86.80
2019-01-09T17:08:01.192Z,86.90
2019-01-09T17:10:32.554Z,86.70
2019-01-09T17:12:59.753Z,86.80
2019-01-09T17:15:28.300Z,86.60
2019-01-09T17:17:56.714Z,86.60
2019-01-09T17:20:29.193Z,86.80
2019-01-09T17:22:57.779Z,86.90
2019-01-09T17:25:26.256Z,86.70
2019-01-09T17:27:54.844Z,86.90
2019-01-09T17:30:31.535Z,86.80
2019-01-09T17:32:59.939Z,86.90
2019-01-09T17:35:28.369Z,86.70
2019-01-09T17:37:56.798Z,86.40
2019-01-09T17:40:25.389Z,86.50
2019-01-09T17:42:54.106Z,86.40
2019-01-09T17:45:22.651Z,86.70
2019-01-09T17:47:51.077Z,86.60
2019-01-09T17:50:25.154Z,86.60
2019-01-09T17:52:53.861Z,86.10
2019-01-09T17:55:22.337Z,86.30
2019-01-09T17:57:50.828Z,86.90
2019-01-09T18:00:28.057Z,86.60
2019-01-09T18:02:56.485Z,86.90
2019-01-09T18:05:24.970Z,87.00
2019-01-09T18:07:53.482Z,86.90
2019-01-09T18:10:23.879Z,86.90
2019-01-09T18:12:52.328Z,86.80
2019-01-09T18:15:22.376Z,86.70
2019-01-09T18:17:51.021Z,86.80
2019-01-09T18:20:21.269Z,86.80
2019-01-09T18:22:49.769Z,86.60
2019-01-09T18:25:20.137Z,86.60
2019-01-09T18:27:48.642Z,86.70
2019-01-09T18:30:27.179Z,86.60
2019-01-09T18:32:58.816Z,86.90
2019-01-09T18:35:36.163Z,86.90
2019-01-09T18:38:16.521Z,86.80
2019-01-09T18:41:12.314Z,86.90
2019-01-09T18:43:43.823Z,86.60
2019-01-09T18:46:15.320Z,86.40
2019-01-09T18:49:07.682Z,86.50
2019-01-09T18:52:00.180Z,86.60
2019-01-09T18:54:28.692Z,86.80
2019-01-09T18:56:57.309Z,86.80
2019-01-09T18:59:28.540Z,86.60
2019-01-09T19:01:56.974Z,86.60
2019-01-09T19:04:25.501Z,86.60
2019-01-09T19:06:54.040Z,86.70
2019-01-09T19:09:22.648Z,86.50
2019-01-09T19:11:51.127Z,86.70
2019-01-09T19:14:19.625Z,86.60
2019-01-09T19:16:48.035Z,86.50
2019-01-09T19:19:16.454Z,86.30
2019-01-09T19:21:45.229Z,86.90
2019-01-09T19:24:13.651Z,86.70
2019-01-09T19:26:42.169Z,86.80
2019-01-09T19:29:10.739Z,86.90
2019-01-09T19:31:40.849Z,87.00
2019-01-09T19:34:09.563Z,86.90
2019-01-09T19:36:37.993Z,86.70
2019-01-09T19:39:08.764Z,86.90
2019-01-09T19:41:37.177Z,86.80
2019-01-09T19:44:05.681Z,86.60
2019-01-09T19:46:34.087Z,86.90
2019-01-09T19:49:02.576Z,86.70
2019-01-09T19:51:31.084Z,86.80
2019-01-09T19:53:59.580Z,86.80
2019-01-09T19:56:28.085Z,86.60
2019-01-09T19:58:56.500Z,86.80
2019-01-09T20:01:24.998Z,86.70
2019-01-09T20:03:53.405Z,86.40
2019-01-09T20:06:21.908Z,86.40
2019-01-09T20:08:50.319Z,86.80
2019-01-09T20:11:26.228Z,86.60
2019-01-09T20:13:49.083Z,86.80
2019-01-09T20:16:17.671Z,86.50
2019-01-09T20:18:46.122Z,86.10
2019-01-09T20:21:14.669Z,86.50
2019-01-09T20:23:43.239Z,86.60
2019-01-09T20:26:11.848Z,86.10
2019-01-09T20:28:40.330Z,85.30
2019-01-09T20:31:08.892Z,86.50
2019-01-09T20:33:37.319Z,86.70
2019-01-09T20:36:06.069Z,86.60
2019-01-09T20:38:34.558Z,86.60
2019-01-09T20:41:02.982Z,86.60
2019-01-09T20:43:31.440Z,86.40
2019-01-09T20:46:00.121Z,86.40
2019-01-09T20:48:28.540Z,86.40
2019-01-09T20:50:56.948Z,86.60
2019-01-09T20:53:25.370Z,86.20
2019-01-09T20:55:53.949Z,86.60
2019-01-09T20:58:22.420Z,86.40
2019-01-09T21:00:50.862Z,86.60
2019-01-09T21:03:19.287Z,86.40
2019-01-09T21:05:48.334Z,86.60
2019-01-09T21:08:17.112Z,86.50
2019-01-09T21:10:45.772Z,86.40
2019-01-09T21:13:14.274Z,86.20
2019-01-09T21:15:42.856Z,86.40
2019-01-09T21:18:11.424Z,86.30
2019-01-09T21:20:40.509Z,86.30
2019-01-09T21:23:09.017Z,86.00
2019-01-09T21:25:37.444Z,86.20
2019-01-09T21:28:06.213Z,86.30
2019-01-09T21:30:34.700Z,86.10
2019-01-09T21:33:03.212Z,86.40
2019-01-09T21:35:31.647Z,86.40
2019-01-09T21:38:00.065Z,86.40
2019-01-09T21:40:29.520Z,86.30
2019-01-09T21:42:58.065Z,86.00
2019-01-09T21:45:26.569Z,86.60
2019-01-09T21:47:55.213Z,86.50
2019-01-09T21:50:25.093Z,86.20
2019-01-09T21:52:53.762Z,86.50
2019-01-09T21:55:22.533Z,85.70
2019-01-09T21:57:51.676Z,86.30
2019-01-09T22:00:23.305Z,86.10
2019-01-09T22:02:51.872Z,86.30
2019-01-09T22:05:21.110Z,86.30
2019-01-09T22:07:49.772Z,86.40
2019-01-09T22:10:20.985Z,86.20
2019-01-09T22:12:49.488Z,86.30
2019-01-09T22:15:18.557Z,85.10
2019-01-09T22:17:47.030Z,86.20
2019-01-09T22:20:16.991Z,86.20
2019-01-09T22:22:45.429Z,86.20
2019-01-09T22:25:14.096Z,86.30
2019-01-09T22:27:43.327Z,85.90
2019-01-09T22:30:15.065Z,86.30
2019-01-09T22:32:43.486Z,85.90
2019-01-09T22:35:12.038Z,86.40
2019-01-09T22:37:40.452Z,86.30
2019-01-09T22:40:14.562Z,86.30
2019-01-09T22:42:43.166Z,86.30
2019-01-09T22:45:12.637Z,86.30
2019-01-09T22:47:41.044Z,86.30
2019-01-09T22:50:15.442Z,86.30
2019-01-09T22:52:46.758Z,86.40
2019-01-09T22:55:15.363Z,86.30
2019-01-09T22:57:43.943Z,86.40
2019-01-09T23:00:21.153Z,86.40
2019-01-09T23:02:49.688Z,86.40
2019-01-09T23:05:18.202Z,86.30
2019-01-09T23:07:46.835Z,86.40
2019-01-09T23:10:15.378Z,86.20
2019-01-09T23:12:43.868Z,86.20
2019-01-09T23:15:12.457Z,86.10
2019-01-09T23:17:40.944Z,85.80
2019-01-09T23:20:11.888Z,85.90
2019-01-09T23:22:40.388Z,86.10
2019-01-09T23:25:09.154Z,85.80
2019-01-09T23:27:37.584Z,86.20
2019-01-09T23:30:11.006Z,86.10
2019-01-09T23:32:39.690Z,86.00
2019-01-09T23:35:10.348Z,85.60
2019-01-09T23:37:38.789Z,86.20
2019-01-09T23:40:15.052Z,85.90
2019-01-09T23:42:46.296Z,85.90
2019-01-09T23:45:15.360Z,85.50
2019-01-09T23:47:43.831Z,85.90
2019-01-09T23:50:12.702Z,86.20
2019-01-09T23:52:41.271Z,86.20
2019-01-09T23:55:11.307Z,86.10
2019-01-09T23:57:40.080Z,85.80
